Time;durP1;ratioP1;P1;durP2;ratioP2;P2;SDS_P1;SDS_P2;PMS_P1;PMS_P2;Temp;Humidity;BMP_temperature;BMP_pressure;BME280_temperature;BME280_humidity;BME280_pressure;Samples;Min_cycle;Max_cycle;Signal;HPM_P1;HPM_P2
2023/01/16 00:00:49;;;;;;;3.10;0.70;;;;;;;;;;5006990;28;20457;-84
2023/01/16 00:03:15;;;;;;;2.92;0.90;;;;;;;;;;5007220;28;20034;-86
2023/01/16 00:05:41;;;;;;;2.08;0.47;;;;;;;;;;5003919;28;20393;-86
2023/01/16 00:08:07;;;;;;;1.75;0.77;;;;;;;;;;5008922;28;20037;-85
2023/01/16 00:10:32;;;;;;;2.30;0.52;;;;;;;;;;4979567;28;20037;-85
2023/01/16 00:12:57;;;;;;;4.38;0.75;;;;;;;;;;4964678;28;20555;-85
2023/01/16 00:15:23;;;;;;;2.28;0.50;;;;;;;;;;4984157;28;20045;-84
2023/01/16 00:17:49;;;;;;;1.08;0.50;;;;;;;;;;4997198;28;20042;-85
2023/01/16 00:20:15;;;;;;;1.83;0.50;;;;;;;;;;5001004;28;20038;-85
2023/01/16 00:22:41;;;;;;;3.00;0.68;;;;;;;;;;5003168;28;20044;-86
2023/01/16 00:25:07;;;;;;;1.02;0.40;;;;;;;;;;5012323;28;20034;-84
2023/01/16 00:27:32;;;;;;;1.00;0.47;;;;;;;;;;4995619;28;20034;-85
2023/01/16 00:29:57;;;;;;;1.95;0.50;;;;;;;;;;4999384;28;20929;-86
2023/01/16 00:32:23;;;;;;;1.83;0.50;;;;;;;;;;4986769;28;20034;-88
2023/01/16 00:34:48;;;;;;;3.58;0.60;;;;;;;;;;4979431;28;20191;-88
2023/01/16 00:37:13;;;;;;;1.25;0.60;;;;;;;;;;5013236;28;20061;-87
2023/01/16 00:39:39;;;;;;;2.55;0.60;;;;;;;;;;5011087;28;20588;-87
2023/01/16 00:42:05;;;;;;;1.25;0.43;;;;;;;;;;4978017;28;20038;-86
2023/01/16 00:44:31;;;;;;;2.80;0.70;;;;;;;;;;5010940;28;20023;-86
2023/01/16 00:46:56;;;;;;;1.30;0.60;;;;;;;;;;4997419;28;20563;-87
2023/01/16 00:49:21;;;;;;;2.95;0.57;;;;;;;;;;4987738;28;20098;-85
2023/01/16 00:51:47;;;;;;;0.70;0.32;;;;;;;;;;5011026;28;20046;-86
2023/01/16 00:54:12;;;;;;;1.50;0.50;;;;;;;;;;5012916;28;20092;-87
2023/01/16 00:56:37;;;;;;;1.08;0.50;;;;;;;;;;4993938;28;20042;-84
2023/01/16 00:59:03;;;;;;;1.75;0.40;;;;;;;;;;4984390;28;20038;-84
2023/01/16 01:01:28;;;;;;;1.08;0.40;;;;;;;;;;4980704;28;20126;-85
2023/01/16 01:03:54;;;;;;;1.40;0.47;;;;;;;;;;4998656;28;20060;-86
2023/01/16 01:06:19;;;;;;;3.17;0.60;;;;;;;;;;5012487;28;20088;-85
2023/01/16 01:08:44;;;;;;;1.83;0.60;;;;;;;;;;5010854;28;20045;-84
2023/01/16 01:11:13;;;;;;;1.95;0.43;;;;;;;;;;5008858;28;20036;-85
2023/01/16 01:13:38;;;;;;;0.98;0.50;;;;;;;;;;4994296;28;20467;-85
2023/01/16 01:16:04;;;;;;;1.27;0.40;;;;;;;;;;5007790;28;20038;-84
2023/01/16 01:18:30;;;;;;;1.55;0.55;;;;;;;;;;4995258;28;20065;-85
2023/01/16 01:20:55;;;;;;;2.15;0.70;;;;;;;;;;4986665;28;21788;-85
2023/01/16 01:23:21;;;;;;;2.42;0.70;;;;;;;;;;4982702;28;20040;-86
2023/01/16 01:25:46;;;;;;;1.80;0.50;;;;;;;;;;5010397;28;20037;-84
2023/01/16 01:28:11;;;;;;;1.67;0.57;;;;;;;;;;4980761;28;20129;-86
2023/01/16 01:30:37;;;;;;;1.48;0.70;;;;;;;;;;4982069;28;20033;-86
2023/01/16 01:33:03;;;;;;;1.55;0.50;;;;;;;;;;4995876;28;20037;-85
2023/01/16 01:35:28;;;;;;;2.05;0.57;;;;;;;;;;4978322;28;20034;-85
2023/01/16 01:37:53;;;;;;;1.92;0.60;;;;;;;;;;5003719;28;20045;-85
2023/01/16 01:40:19;;;;;;;0.93;0.40;;;;;;;;;;5027023;28;20031;-83
2023/01/16 01:42:51;;;;;;;2.15;0.60;;;;;;;;;;4981097;28;20100;-85
2023/01/16 01:45:19;;;;;;;1.67;0.68;;;;;;;;;;4993649;28;20382;-86
2023/01/16 01:47:51;;;;;;;1.50;0.60;;;;;;;;;;5010712;28;20600;-82
2023/01/16 01:50:29;;;;;;;1.67;0.55;;;;;;;;;;5008486;28;20087;-85
2023/01/16 01:52:54;;;;;;;;;;;;;;;;;;5012509;28;20066;-85
2023/01/16 01:55:20;;;;;;;2.22;0.70;;;;;;;;;;4994386;28;19979;-86
2023/01/16 01:57:49;;;;;;;1.42;0.50;;;;;;;;;;5010078;28;20095;-86
2023/01/16 02:00:18;;;;;;;2.25;0.68;;;;;;;;;;4977328;28;20649;-86
2023/01/16 02:03:06;;;;;;;2.35;0.57;;;;;;;;;;4991173;28;20587;-86
2023/01/16 02:05:44;;;;;;;2.05;0.60;;;;;;;;;;5009799;28;20046;-85
2023/01/16 02:08:13;;;;;;;2.00;0.57;;;;;;;;;;4996945;28;20034;-84
2023/01/16 02:10:49;;;;;;;1.60;0.50;;;;;;;;;;5008944;28;20751;-85
2023/01/16 02:13:14;;;;;;;1.15;0.47;;;;;;;;;;5011019;28;20105;-85
2023/01/16 02:19:14;;;;;;;2.28;0.57;;;;;;;;;;4986677;28;20041;-85
2023/01/16 02:21:28;;;;;;;1.65;0.70;;;;;;;;;;4992941;28;20049;-85
2023/01/16 02:24:12;;;;;;;1.52;0.45;;;;;;;;;;5000118;28;20068;-84
2023/01/16 02:26:40;;;;;;;1.77;0.40;;;;;;;;;;5017101;28;20646;-85
2023/01/16 02:29:24;;;;;;;1.60;0.47;;;;;;;;;;4981795;28;20034;-85
2023/01/16 02:31:55;;;;;;;1.30;0.52;;;;;;;;;;4999831;28;20046;-84
2023/01/16 02:34:23;;;;;;;0.93;0.40;;;;;;;;;;4977437;28;20041;-86
2023/01/16 02:37:07;;;;;;;1.85;0.40;;;;;;;;;;4985642;28;20198;-85
2023/01/16 02:39:54;;;;;;;1.83;0.60;;;;;;;;;;4985920;28;20505;-86
2023/01/16 02:42:29;;;;;;;1.13;0.50;;;;;;;;;;5001731;28;20164;-85
2023/01/16 02:44:55;;;;;;;2.05;0.60;;;;;;;;;;4980148;28;20505;-84
2023/01/16 02:47:26;;;;;;;1.50;0.65;;;;;;;;;;5016597;28;20067;-85
2023/01/16 02:50:21;;;;;;;2.00;0.63;;;;;;;;;;5004934;28;20065;-87
2023/01/16 02:53:00;;;;;;;1.67;0.52;;;;;;;;;;4972547;28;20437;-85
2023/01/16 02:55:40;;;;;;;3.05;0.60;;;;;;;;;;4977789;28;20152;-85
2023/01/16 02:58:06;;;;;;;1.30;0.60;;;;;;;;;;4968946;28;20063;-85
2023/01/16 03:00:33;;;;;;;3.00;0.80;;;;;;;;;;4987440;28;20029;-85
2023/01/16 03:02:59;;;;;;;1.27;0.60;;;;;;;;;;5004109;28;20797;-85
2023/01/16 03:05:25;;;;;;;1.60;0.60;;;;;;;;;;4987153;28;20034;-84
2023/01/16 03:08:25;;;;;;;1.05;0.35;;;;;;;;;;5018624;28;20719;-84
2023/01/16 03:11:13;;;;;;;4.10;0.75;;;;;;;;;;4962098;28;20524;-84
2023/01/16 03:13:39;;;;;;;2.63;0.73;;;;;;;;;;4988574;28;20072;-87
2023/01/16 03:16:30;;;;;;;4.03;0.70;;;;;;;;;;4997695;28;20113;-84
2023/01/16 03:19:23;;;;;;;3.72;0.70;;;;;;;;;;5005843;28;20069;-85
2023/01/16 03:22:24;;;;;;;2.42;0.60;;;;;;;;;;5004041;28;20037;-83
2023/01/16 03:25:19;;;;;;;2.20;0.50;;;;;;;;;;5014112;28;20061;-85
2023/01/16 03:28:08;;;;;;;1.73;0.60;;;;;;;;;;4988557;28;20457;-86
2023/01/16 03:30:54;;;;;;;2.72;0.80;;;;;;;;;;5038284;28;20053;-86
2023/01/16 03:33:33;;;;;;;1.27;0.70;;;;;;;;;;4998537;28;20400;-84
2023/01/16 03:36:07;;;;;;;1.35;0.60;;;;;;;;;;5022587;28;20041;-85
2023/01/16 03:38:33;;;;;;;2.03;0.88;;;;;;;;;;5007426;28;20353;-86
2023/01/16 03:41:01;;;;;;;2.00;0.60;;;;;;;;;;4995310;28;20038;-84
2023/01/16 03:43:35;;;;;;;1.25;0.60;;;;;;;;;;4995332;28;20406;-82
2023/01/16 03:46:09;;;;;;;0.85;0.50;;;;;;;;;;5009877;28;20055;-84
2023/01/16 03:49:08;;;;;;;2.20;0.75;;;;;;;;;;4993147;28;20053;-84
2023/01/16 03:51:37;;;;;;;1.20;0.50;;;;;;;;;;5016751;28;20044;-85
2023/01/16 03:54:10;;;;;;;1.45;0.60;;;;;;;;;;5001052;28;20041;-84
2023/01/16 03:56:39;;;;;;;1.23;0.60;;;;;;;;;;5007369;28;20542;-86
2023/01/16 03:59:05;;;;;;;1.35;0.50;;;;;;;;;;5006098;28;20040;-85
2023/01/16 04:01:37;;;;;;;2.65;1.00;;;;;;;;;;5004444;28;20045;-83
2023/01/16 04:04:03;;;;;;;1.42;0.60;;;;;;;;;;4984079;28;20092;-84
2023/01/16 04:06:47;;;;;;;1.52;0.60;;;;;;;;;;4999854;28;20079;-81
2023/01/16 04:09:19;;;;;;;1.38;0.65;;;;;;;;;;4997892;28;20387;-84
2023/01/16 04:11:45;;;;;;;1.25;0.47;;;;;;;;;;5009253;28;20034;-86
2023/01/16 04:14:11;;;;;;;1.02;0.55;;;;;;;;;;5006114;28;20048;-86
2023/01/16 04:16:39;;;;;;;2.75;0.70;;;;;;;;;;4995685;28;20581;-85
2023/01/16 04:19:05;;;;;;;1.77;0.60;;;;;;;;;;4990307;28;20039;-85
2023/01/16 04:21:33;;;;;;;1.75;0.60;;;;;;;;;;4983742;28;20059;-86
2023/01/16 04:23:59;;;;;;;2.95;0.63;;;;;;;;;;5015487;28;20969;-85
2023/01/16 04:26:25;;;;;;;1.65;0.70;;;;;;;;;;4995636;28;20041;-84
2023/01/16 04:28:54;;;;;;;1.50;0.60;;;;;;;;;;4993022;28;20496;-86
2023/01/16 04:31:22;;;;;;;1.48;0.50;;;;;;;;;;4999241;28;20046;-87
2023/01/16 04:33:47;;;;;;;1.00;0.60;;;;;;;;;;5002541;28;20381;-89
2023/01/16 04:36:13;;;;;;;1.38;0.55;;;;;;;;;;5006315;28;20049;-85
2023/01/16 04:38:38;;;;;;;2.20;0.82;;;;;;;;;;4996739;28;20026;-85
2023/01/16 04:41:03;;;;;;;1.45;0.70;;;;;;;;;;5010789;28;20040;-87
2023/01/16 04:43:29;;;;;;;2.92;0.90;;;;;;;;;;5001858;28;20029;-86
2023/01/16 04:45:55;;;;;;;2.47;0.70;;;;;;;;;;4994787;28;20129;-86
2023/01/16 04:48:20;;;;;;;1.35;0.70;;;;;;;;;;5004044;28;20033;-86
2023/01/16 04:50:48;;;;;;;1.42;0.70;;;;;;;;;;4995660;28;20442;-85
2023/01/16 04:53:14;;;;;;;1.10;0.50;;;;;;;;;;5009238;28;20037;-86
2023/01/16 04:55:39;;;;;;;2.25;0.80;;;;;;;;;;5008040;28;20040;-84
2023/01/16 04:58:05;;;;;;;2.50;0.73;;;;;;;;;;5009709;28;20036;-85
2023/01/16 05:00:30;;;;;;;1.40;0.60;;;;;;;;;;4992863;28;20112;-87
2023/01/16 05:02:55;;;;;;;3.17;1.20;;;;;;;;;;5011589;28;20158;-85
2023/01/16 05:05:21;;;;;;;2.17;0.90;;;;;;;;;;5012901;28;20400;-85
2023/01/16 05:08:15;;;;;;;3.05;1.02;;;;;;;;;;5009755;28;20041;-84
2023/01/16 05:10:32;;;;;;;2.70;0.80;;;;;;;;;;5010245;28;20500;-86
2023/01/16 05:12:57;;;;;;;1.23;0.60;;;;;;;;;;5005147;28;20068;-85
2023/01/16 05:15:22;;;;;;;2.10;0.80;;;;;;;;;;5007066;28;20034;-86
2023/01/16 05:17:48;;;;;;;1.73;0.70;;;;;;;;;;4986693;28;20101;-82
2023/01/16 05:20:13;;;;;;;1.55;0.60;;;;;;;;;;4989838;28;20041;-87
2023/01/16 05:22:39;;;;;;;2.60;0.70;;;;;;;;;;4990545;28;20092;-89
2023/01/16 05:25:04;;;;;;;1.88;0.70;;;;;;;;;;4991346;28;20421;-87
2023/01/16 05:27:30;;;;;;;2.78;0.85;;;;;;;;;;4979938;28;20041;-89
2023/01/16 05:29:55;;;;;;;1.88;0.60;;;;;;;;;;4997530;28;20068;-88
2023/01/16 05:32:20;;;;;;;2.97;0.95;;;;;;;;;;4990258;28;20579;-90
2023/01/16 05:34:46;;;;;;;1.48;0.63;;;;;;;;;;5002399;28;20048;-85
2023/01/16 05:37:11;;;;;;;3.58;0.82;;;;;;;;;;4992071;28;20061;-87
2023/01/16 05:39:37;;;;;;;4.35;0.80;;;;;;;;;;4980201;28;20038;-89
2023/01/16 05:42:02;;;;;;;1.52;0.60;;;;;;;;;;5001833;28;20614;-89
2023/01/16 05:44:28;;;;;;;2.10;0.60;;;;;;;;;;4994356;28;20033;-87
2023/01/16 05:46:53;;;;;;;1.58;0.70;;;;;;;;;;4965913;28;20100;-83
2023/01/16 05:49:18;;;;;;;1.73;0.65;;;;;;;;;;5005895;28;20064;-83
2023/01/16 05:51:44;;;;;;;2.40;0.80;;;;;;;;;;4969018;28;20037;-83
2023/01/16 05:54:11;;;;;;;2.72;0.75;;;;;;;;;;4975993;28;20061;-82
2023/01/16 05:56:37;;;;;;;1.85;0.60;;;;;;;;;;5007428;28;20108;-82
2023/01/16 05:59:02;;;;;;;2.08;0.80;;;;;;;;;;4961610;28;20033;-83
2023/01/16 06:01:27;;;;;;;3.15;0.85;;;;;;;;;;4991466;28;20137;-85
2023/01/16 06:03:53;;;;;;;3.78;1.00;;;;;;;;;;4963738;28;20044;-85
2023/01/16 06:06:18;;;;;;;2.13;0.60;;;;;;;;;;4976270;28;20034;-85
2023/01/16 06:08:45;;;;;;;3.58;0.95;;;;;;;;;;5002717;28;20406;-84
2023/01/16 06:11:12;;;;;;;3.40;0.75;;;;;;;;;;4972814;28;20810;-85
2023/01/16 06:13:37;;;;;;;3.47;1.00;;;;;;;;;;4999884;28;20052;-84
2023/01/16 06:16:03;;;;;;;2.03;0.82;;;;;;;;;;5039997;28;20056;-84
2023/01/16 06:18:28;;;;;;;3.33;0.73;;;;;;;;;;4996532;28;20133;-84
2023/01/16 06:20:54;;;;;;;3.13;0.95;;;;;;;;;;5037567;28;20474;-83
2023/01/16 06:23:19;;;;;;;2.13;0.82;;;;;;;;;;4998315;28;20132;-85
2023/01/16 06:25:48;;;;;;;3.42;1.00;;;;;;;;;;5007929;28;20034;-84
2023/01/16 06:28:14;;;;;;;1.95;0.65;;;;;;;;;;5008191;28;20389;-84
2023/01/16 06:30:39;;;;;;;3.53;0.90;;;;;;;;;;4995323;28;20037;-83
2023/01/16 06:33:04;;;;;;;2.72;0.70;;;;;;;;;;4994361;28;20034;-83
2023/01/16 06:35:30;;;;;;;2.60;0.85;;;;;;;;;;5008495;28;20892;-87
2023/01/16 06:37:55;;;;;;;3.30;0.88;;;;;;;;;;4984308;28;20509;-84
2023/01/16 06:40:20;;;;;;;3.42;1.35;;;;;;;;;;5023322;28;20090;-85
2023/01/16 06:42:46;;;;;;;3.70;0.80;;;;;;;;;;4984621;28;20065;-83
2023/01/16 06:45:11;;;;;;;4.30;0.85;;;;;;;;;;5004769;28;20436;-81
2023/01/16 06:47:37;;;;;;;2.42;0.70;;;;;;;;;;4990625;28;20037;-83
2023/01/16 06:50:02;;;;;;;3.85;0.80;;;;;;;;;;4992320;28;20048;-80
2023/01/16 06:52:28;;;;;;;2.38;0.82;;;;;;;;;;5020109;28;20456;-80
2023/01/16 06:54:53;;;;;;;2.50;0.80;;;;;;;;;;5006536;28;20044;-80
2023/01/16 06:57:19;;;;;;;2.47;0.68;;;;;;;;;;4998519;28;20041;-80
2023/01/16 06:59:44;;;;;;;2.88;0.88;;;;;;;;;;4982109;28;20484;-80
2023/01/16 07:02:09;;;;;;;2.20;0.90;;;;;;;;;;4996521;28;20038;-80
2023/01/16 07:04:35;;;;;;;2.28;0.85;;;;;;;;;;4992610;28;20041;-80
2023/01/16 07:07:20;;;;;;;2.50;0.73;;;;;;;;;;4998307;28;20093;-81
2023/01/16 07:09:46;;;;;;;2.42;0.68;;;;;;;;;;4918686;28;20047;-81
2023/01/16 07:12:11;;;;;;;2.85;0.65;;;;;;;;;;4910654;28;20977;-80
2023/01/16 07:22:50;;;;;;;2.60;0.80;;;;;;;;;;4946393;28;20510;-80
2023/01/16 07:25:26;;;;;;;2.60;0.90;;;;;;;;;;4929510;28;20138;-80
2023/01/16 07:27:51;;;;;;;3.33;0.95;;;;;;;;;;4946145;28;20051;-86
2023/01/16 07:30:18;;;;;;;2.72;1.00;;;;;;;;;;4930848;28;20043;-87
2023/01/16 07:32:44;;;;;;;2.30;0.70;;;;;;;;;;4932623;28;20054;-85
2023/01/16 07:35:10;;;;;;;2.42;0.63;;;;;;;;;;4961931;28;20586;-86
2023/01/16 07:37:35;;;;;;;3.45;0.80;;;;;;;;;;4931400;28;20039;-87
2023/01/16 07:40:01;;;;;;;3.20;0.68;;;;;;;;;;4931054;28;20725;-84
2023/01/16 07:42:29;;;;;;;2.20;0.88;;;;;;;;;;4944710;28;20039;-85
2023/01/16 07:44:55;;;;;;;2.60;0.95;;;;;;;;;;4930961;28;20118;-87
2023/01/16 07:47:20;;;;;;;2.75;1.00;;;;;;;;;;5003528;28;20033;-85
2023/01/16 07:49:46;;;;;;;2.28;0.77;;;;;;;;;;5012740;28;20034;-90
2023/01/16 07:52:11;;;;;;;2.38;0.70;;;;;;;;;;4996456;28;20035;-88
2023/01/16 07:54:41;;;;;;;1.95;0.70;;;;;;;;;;4992814;28;20035;-88
2023/01/16 07:57:06;;;;;;;2.38;0.80;;;;;;;;;;4993136;28;20045;-89
2023/01/16 07:59:32;;;;;;;2.58;0.80;;;;;;;;;;5006602;28;20046;-86
2023/01/16 08:01:57;;;;;;;3.90;0.90;;;;;;;;;;4981814;28;20037;-85
2023/01/16 08:04:23;;;;;;;1.73;0.60;;;;;;;;;;4979656;28;20037;-86
2023/01/16 08:06:48;;;;;;;2.08;0.68;;;;;;;;;;4987571;28;20045;-86
2023/01/16 08:09:13;;;;;;;3.80;0.73;;;;;;;;;;4989286;28;20029;-86
2023/01/16 08:11:39;;;;;;;1.85;0.60;;;;;;;;;;4996031;28;20065;-86
2023/01/16 08:14:26;;;;;;;1.48;0.60;;;;;;;;;;5002978;28;20037;-86
2023/01/16 08:17:11;;;;;;;2.03;0.70;;;;;;;;;;4968722;28;20057;-88
2023/01/16 08:19:37;;;;;;;3.05;0.70;;;;;;;;;;4949035;28;20043;-86
2023/01/16 08:22:02;;;;;;;1.65;0.60;;;;;;;;;;4912996;28;20035;-87
2023/01/16 08:24:28;;;;;;;3.53;0.73;;;;;;;;;;4915183;28;20622;-89
2023/01/16 08:27:14;;;;;;;2.70;0.50;;;;;;;;;;4929358;28;20542;-88
2023/01/16 08:29:39;;;;;;;1.83;0.70;;;;;;;;;;4894558;29;20058;-89
2023/01/16 08:32:05;;;;;;;3.47;1.00;;;;;;;;;;4910765;29;20032;-89
2023/01/16 08:34:30;;;;;;;2.25;0.80;;;;;;;;;;4910768;29;20143;-90
2023/01/16 08:36:56;;;;;;;2.22;0.50;;;;;;;;;;4876577;29;20048;-89
2023/01/16 08:39:21;;;;;;;4.65;0.80;;;;;;;;;;4891770;29;20436;-90
2023/01/16 08:52:48;;;;;;;2.45;0.98;;;;;;;;;;4897887;29;20610;-88
2023/01/16 08:55:13;;;;;;;2.25;0.68;;;;;;;;;;4910904;29;20044;-86
2023/01/16 08:57:38;;;;;;;1.13;0.45;;;;;;;;;;4930192;29;20095;-87
2023/01/16 09:00:05;;;;;;;2.47;0.70;;;;;;;;;;4927563;28;20035;-88
2023/01/16 09:02:34;;;;;;;2.47;0.83;;;;;;;;;;4925072;29;20475;-86
2023/01/16 09:04:59;;;;;;;3.05;1.15;;;;;;;;;;4930064;29;20763;-88
2023/01/16 09:07:25;;;;;;;3.70;1.20;;;;;;;;;;4988195;28;20121;-90
2023/01/16 09:09:51;;;;;;;4.20;1.15;;;;;;;;;;4996634;28;20167;-89
2023/01/16 09:15:00;;;;;;;2.10;0.73;;;;;;;;;;5013696;28;20041;-89
2023/01/16 09:17:29;;;;;;;3.22;0.57;;;;;;;;;;5010583;28;20029;-88
2023/01/16 09:19:54;;;;;;;2.78;0.80;;;;;;;;;;4984526;28;20610;-88
2023/01/16 09:22:20;;;;;;;2.90;0.82;;;;;;;;;;4994973;28;20052;-88
2023/01/16 09:24:46;;;;;;;3.47;0.90;;;;;;;;;;5005698;28;20096;-88
2023/01/16 09:27:14;;;;;;;1.77;0.60;;;;;;;;;;4995546;28;20032;-90
2023/01/16 09:29:40;;;;;;;3.13;0.60;;;;;;;;;;4985744;28;20511;-88
2023/01/16 09:32:08;;;;;;;5.70;0.90;;;;;;;;;;5027906;28;20033;-85
2023/01/16 09:34:37;;;;;;;2.97;0.60;;;;;;;;;;4988423;28;20698;-86
2023/01/16 09:37:08;;;;;;;2.40;0.90;;;;;;;;;;5013365;28;20049;-87
2023/01/16 09:39:34;;;;;;;3.30;0.80;;;;;;;;;;4998496;28;20038;-89
2023/01/16 09:45:06;;;;;;;1.60;0.68;;;;;;;;;;5023389;28;20041;-86
2023/01/16 09:47:33;;;;;;;2.40;0.70;;;;;;;;;;4994526;28;20040;-88
2023/01/16 09:50:03;;;;;;;2.60;0.65;;;;;;;;;;4982344;28;20088;-87
2023/01/16 10:00:51;;;;;;;2.58;0.60;;;;;;;;;;5036986;28;20044;-90
2023/01/16 10:03:17;;;;;;;3.13;0.60;;;;;;;;;;4995206;28;20037;-86
2023/01/16 10:05:50;;;;;;;2.53;0.73;;;;;;;;;;5008077;28;20033;-85
2023/01/16 10:08:25;;;;;;;2.72;0.57;;;;;;;;;;4992194;28;20041;-87
2023/01/16 10:11:12;;;;;;;2.80;0.60;;;;;;;;;;5040115;28;20584;-89
2023/01/16 10:13:42;;;;;;;1.38;0.45;;;;;;;;;;4998646;28;20051;-87
2023/01/16 10:16:42;;;;;;;1.92;0.70;;;;;;;;;;4985194;28;20517;-86
2023/01/16 10:19:07;;;;;;;2.03;0.52;;;;;;;;;;5005925;28;20064;-86
2023/01/16 10:21:48;;;;;;;1.27;0.50;;;;;;;;;;5006687;28;20120;-86
2023/01/16 10:24:35;;;;;;;2.10;0.70;;;;;;;;;;5025917;28;20552;-87
2023/01/16 10:27:19;;;;;;;1.65;0.50;;;;;;;;;;5022642;28;20042;-87
2023/01/16 10:29:55;;;;;;;2.90;0.47;;;;;;;;;;5038681;28;20038;-88
2023/01/16 10:32:26;;;;;;;3.33;0.70;;;;;;;;;;5023432;28;20025;-88
2023/01/16 10:35:43;;;;;;;1.95;0.52;;;;;;;;;;4998297;28;20047;-88
2023/01/16 10:38:45;;;;;;;3.72;0.63;;;;;;;;;;5008534;28;20200;-89
2023/01/16 10:49:39;;;;;;;2.00;0.70;;;;;;;;;;5011317;28;20045;-90
2023/01/16 10:52:05;;;;;;;3.03;0.70;;;;;;;;;;5027377;28;20496;-88
2023/01/16 10:54:30;;;;;;;1.25;0.50;;;;;;;;;;4992679;28;20030;-89
2023/01/16 10:57:01;;;;;;;2.28;0.52;;;;;;;;;;4991210;28;20060;-91
2023/01/16 10:59:27;;;;;;;1.08;0.40;;;;;;;;;;5001407;28;20214;-89
2023/01/16 11:01:53;;;;;;;1.88;0.60;;;;;;;;;;5005425;28;20042;-86
2023/01/16 11:04:20;;;;;;;1.98;0.45;;;;;;;;;;5004682;28;20504;-86
2023/01/16 11:06:45;;;;;;;2.15;0.65;;;;;;;;;;5007585;28;20041;-86
2023/01/16 11:09:13;;;;;;;2.13;0.60;;;;;;;;;;4998094;28;20044;-87
2023/01/16 11:20:39;;;;;;;2.28;0.80;;;;;;;;;;4987158;28;20045;-84
2023/01/16 11:23:26;;;;;;;0.73;0.40;;;;;;;;;;4973554;28;20341;-85
2023/01/16 11:25:54;;;;;;;1.15;0.40;;;;;;;;;;4982666;28;20038;-85
2023/01/16 11:28:31;;;;;;;2.40;0.52;;;;;;;;;;4973410;28;20042;-86
2023/01/16 11:31:23;;;;;;;2.22;0.32;;;;;;;;;;4986198;28;20038;-87
2023/01/16 11:33:57;;;;;;;2.13;0.50;;;;;;;;;;4953349;28;20122;-87
2023/01/16 11:36:24;;;;;;;2.13;0.65;;;;;;;;;;4974904;28;20053;-88
2023/01/16 11:38:50;;;;;;;2.13;0.63;;;;;;;;;;4967890;28;20038;-87
2023/01/16 11:41:22;;;;;;;1.65;0.50;;;;;;;;;;4991221;28;20062;-87
2023/01/16 11:46:57;;;;;;;2.22;0.50;;;;;;;;;;4989746;28;20097;-86
2023/01/16 11:49:27;;;;;;;2.13;0.60;;;;;;;;;;4949687;28;20038;-85
2023/01/16 11:51:53;;;;;;;3.33;0.50;;;;;;;;;;4973790;28;20137;-88
2023/01/16 11:54:27;;;;;;;1.35;0.30;;;;;;;;;;4974759;28;20089;-86
2023/01/16 11:56:55;;;;;;;2.90;0.50;;;;;;;;;;4994114;28;20042;-85
2023/01/16 11:59:23;;;;;;;4.93;0.85;;;;;;;;;;4986446;28;20042;-85
2023/01/16 12:04:33;;;;;;;1.05;0.43;;;;;;;;;;5021957;28;20265;-87
2023/01/16 12:07:17;;;;;;;4.75;0.70;;;;;;;;;;5011635;28;20041;-87
2023/01/16 12:09:51;;;;;;;2.90;0.60;;;;;;;;;;5007690;28;20081;-86
2023/01/16 12:15:39;;;;;;;2.22;0.50;;;;;;;;;;5022973;28;20559;-87
2023/01/16 12:18:19;;;;;;;2.65;0.50;;;;;;;;;;4995385;28;20045;-88
2023/01/16 12:21:01;;;;;;;1.00;0.35;;;;;;;;;;5038109;28;20798;-89
2023/01/16 12:23:38;;;;;;;3.30;0.70;;;;;;;;;;4984251;28;20038;-87
2023/01/16 12:26:26;;;;;;;1.60;0.50;;;;;;;;;;5043399;28;20037;-88
2023/01/16 12:29:03;;;;;;;2.10;0.65;;;;;;;;;;5027639;28;20041;-86
2023/01/16 12:31:35;;;;;;;;;;;;;;;;;;4992099;28;20555;-86
2023/01/16 12:34:10;;;;;;;1.52;0.55;;;;;;;;;;5031257;28;20381;-87
2023/01/16 12:36:42;;;;;;;1.20;0.35;;;;;;;;;;5022973;28;20061;-88
2023/01/16 12:39:24;;;;;;;1.65;0.50;;;;;;;;;;5033502;28;20060;-86
2023/01/16 12:45:11;;;;;;;1.55;0.30;;;;;;;;;;5012422;28;20434;-87
2023/01/16 12:47:45;;;;;;;1.38;0.40;;;;;;;;;;5007479;28;20108;-89
2023/01/16 12:50:26;;;;;;;1.77;0.47;;;;;;;;;;5020804;28;20515;-88
2023/01/16 12:53:10;;;;;;;2.05;0.55;;;;;;;;;;5009854;28;20059;-88
2023/01/16 12:55:48;;;;;;;1.85;0.50;;;;;;;;;;4999075;28;20520;-89
2023/01/16 12:58:19;;;;;;;1.42;0.40;;;;;;;;;;5031188;28;20034;-88
2023/01/16 13:01:01;;;;;;;1.15;0.40;;;;;;;;;;4984930;28;20384;-88
2023/01/16 13:03:40;;;;;;;3.00;0.43;;;;;;;;;;5021753;28;20045;-89
2023/01/16 13:06:12;;;;;;;1.48;0.50;;;;;;;;;;5006103;28;20030;-89
2023/01/16 13:08:41;;;;;;;1.42;0.50;;;;;;;;;;4995111;28;20500;-90
2023/01/16 13:14:01;;;;;;;2.30;0.50;;;;;;;;;;4997921;28;20191;-89
2023/01/16 13:16:51;;;;;;;1.90;0.50;;;;;;;;;;5011739;28;20053;-89
2023/01/16 13:19:23;;;;;;;2.55;0.52;;;;;;;;;;5006206;28;20042;-87
2023/01/16 13:22:06;;;;;;;3.50;0.70;;;;;;;;;;4992249;28;20045;-88
2023/01/16 13:24:34;;;;;;;1.75;0.50;;;;;;;;;;4979320;28;20105;-89
2023/01/16 13:27:03;;;;;;;1.83;0.70;;;;;;;;;;4982872;28;20037;-88
2023/01/16 13:29:36;;;;;;;2.42;0.60;;;;;;;;;;5027124;28;20037;-88
2023/01/16 13:32:32;;;;;;;1.02;0.40;;;;;;;;;;5008721;28;20987;-88
2023/01/16 13:35:29;;;;;;;1.60;0.60;;;;;;;;;;4970059;28;20090;-90
2023/01/16 13:38:13;;;;;;;2.67;0.70;;;;;;;;;;4950107;28;20132;-90
2023/01/16 13:40:53;;;;;;;1.48;0.45;;;;;;;;;;4956791;28;20038;-90
2023/01/16 13:46:12;;;;;;;2.90;0.60;;;;;;;;;;4975690;28;20519;-91
2023/01/16 13:48:37;;;;;;;2.50;0.70;;;;;;;;;;4944006;28;20031;-90
2023/01/16 13:51:14;;;;;;;1.70;0.43;;;;;;;;;;4951597;28;20045;-90
2023/01/16 13:53:40;;;;;;;2.38;0.68;;;;;;;;;;4961448;28;20031;-87
2023/01/16 13:56:10;;;;;;;2.28;0.70;;;;;;;;;;4942954;28;20485;-87
2023/01/16 13:58:45;;;;;;;2.28;0.70;;;;;;;;;;4966194;28;20126;-88
2023/01/16 14:01:34;;;;;;;2.17;0.60;;;;;;;;;;4933837;28;20521;-86
2023/01/16 14:04:15;;;;;;;1.92;0.50;;;;;;;;;;4950422;28;20031;-87
2023/01/16 14:06:50;;;;;;;3.70;0.80;;;;;;;;;;4958440;28;20039;-91
2023/01/16 14:09:18;;;;;;;1.95;0.43;;;;;;;;;;4948053;28;20116;-88
2023/01/16 14:12:08;;;;;;;1.17;0.45;;;;;;;;;;4994157;28;20048;-87
2023/01/16 14:17:27;;;;;;;1.83;0.60;;;;;;;;;;5005511;28;20466;-88
2023/01/16 14:20:02;;;;;;;2.33;0.60;;;;;;;;;;4965327;28;20034;-90
2023/01/16 14:25:20;;;;;;;2.15;0.52;;;;;;;;;;4992912;28;20044;-89
2023/01/16 14:27:49;;;;;;;1.67;0.63;;;;;;;;;;5000447;28;20089;-89
2023/01/16 14:30:26;;;;;;;2.90;0.60;;;;;;;;;;4964848;28;20485;-88
2023/01/16 14:32:55;;;;;;;2.08;0.68;;;;;;;;;;4966752;28;20042;-87
2023/01/16 14:35:23;;;;;;;1.25;0.40;;;;;;;;;;5015958;28;20505;-87
2023/01/16 14:38:02;;;;;;;1.45;0.45;;;;;;;;;;4973072;28;20411;-87
2023/01/16 14:55:55;;;;;;;4.80;0.90;;;;;;;;;;4993511;28;20059;-87
2023/01/16 14:58:42;;;;;;;1.35;0.43;;;;;;;;;;4966522;28;20042;-87
2023/01/16 15:04:05;;;;;;;8.32;2.60;;;;;;;;;;4990998;28;20505;-87
2023/01/16 15:06:46;;;;;;;1.98;0.68;;;;;;;;;;5018041;28;20033;-87
2023/01/16 15:09:19;;;;;;;3.65;0.85;;;;;;;;;;4993805;28;20537;-89
2023/01/16 15:11:57;;;;;;;2.20;0.70;;;;;;;;;;5019516;28;20047;-88
2023/01/16 15:14:26;;;;;;;1.95;0.70;;;;;;;;;;5008910;28;20464;-89
2023/01/16 15:23:41;;;;;;;2.67;0.93;;;;;;;;;;4985493;28;20103;-90
2023/01/16 15:26:35;;;;;;;3.50;0.60;;;;;;;;;;4931893;28;20282;-90
2023/01/16 15:29:47;;;;;;;1.90;0.68;;;;;;;;;;4952969;28;20043;-91
2023/01/16 15:33:02;;;;;;;;;;;;;;;;;;;;;
2023/01/16 15:35:28;;;;;;;2.28;0.60;;;;;;;;;;4946190;28;21268;-90
2023/01/16 15:37:55;;;;;;;2.58;0.70;;;;;;;;;;4900144;28;20054;-88
2023/01/16 15:40:25;;;;;;;1.95;0.68;;;;;;;;;;4972255;28;20043;-87
2023/01/16 15:48:35;;;;;;;3.20;0.70;;;;;;;;;;4941526;28;20412;-88
2023/01/16 15:51:04;;;;;;;2.03;0.80;;;;;;;;;;4942413;28;20507;-88
2023/01/16 15:53:46;;;;;;;1.92;0.65;;;;;;;;;;4913299;29;20114;-90
2023/01/16 15:56:21;;;;;;;2.08;0.80;;;;;;;;;;4905865;28;20043;-90
2023/01/16 15:58:51;;;;;;;2.25;0.70;;;;;;;;;;4941166;28;20043;-90
2023/01/16 16:01:27;;;;;;;2.25;0.80;;;;;;;;;;4937974;28;20070;-90
2023/01/16 16:03:53;;;;;;;4.55;0.90;;;;;;;;;;4987613;28;20060;-89
2023/01/16 16:06:19;;;;;;;2.65;0.77;;;;;;;;;;5016288;28;20475;-89
2023/01/16 16:08:47;;;;;;;3.05;0.80;;;;;;;;;;5016287;28;20057;-88
2023/01/16 16:14:01;;;;;;;3.20;0.70;;;;;;;;;;4995498;28;19936;-88
2023/01/16 16:19:35;;;;;;;3.63;1.10;;;;;;;;;;4978253;28;20049;-88
2023/01/16 16:24:47;;;;;;;4.45;1.10;;;;;;;;;;5003742;28;20053;-89
2023/01/16 16:27:15;;;;;;;2.58;1.00;;;;;;;;;;4982973;28;20042;-90
2023/01/16 16:29:41;;;;;;;3.78;1.00;;;;;;;;;;4989606;28;20039;-89
2023/01/16 16:32:12;;;;;;;2.90;1.10;;;;;;;;;;5005417;28;20035;-88
2023/01/16 16:34:42;;;;;;;4.15;1.02;;;;;;;;;;4995288;28;20042;-84
2023/01/16 16:37:11;;;;;;;2.90;1.00;;;;;;;;;;4995719;28;20037;-88
2023/01/16 16:39:44;;;;;;;5.15;1.50;;;;;;;;;;4997286;28;20041;-87
2023/01/16 16:42:29;;;;;;;4.45;1.98;;;;;;;;;;4994976;28;20037;-87
2023/01/16 16:45:06;;;;;;;3.60;1.08;;;;;;;;;;5011176;28;20041;-88
2023/01/16 16:47:36;;;;;;;4.18;1.10;;;;;;;;;;4995168;28;20092;-87
2023/01/16 16:50:35;;;;;;;3.35;0.98;;;;;;;;;;4995504;28;20505;-88
2023/01/16 16:53:13;;;;;;;4.03;1.00;;;;;;;;;;5004240;28;20140;-87
2023/01/16 16:56:07;;;;;;;3.30;1.23;;;;;;;;;;5010340;28;20038;-85
2023/01/16 16:58:36;;;;;;;4.18;0.93;;;;;;;;;;5000905;28;20687;-88
2023/01/16 17:01:21;;;;;;;3.25;1.17;;;;;;;;;;4989366;28;20373;-87
2023/01/16 17:03:55;;;;;;;4.05;1.35;;;;;;;;;;4929840;28;20074;-88
2023/01/16 17:06:27;;;;;;;3.83;1.30;;;;;;;;;;4942202;28;20035;-90